Time;durP1;ratioP1;P1;durP2;ratioP2;P2;SDS_P1;SDS_P2;PMS_P1;PMS_P2;Temp;Humidity;BMP_temperature;BMP_pressure;BME280_temperature;BME280_humidity;BME280_pressure;Samples;Min_cycle;Max_cycle;Signal;HPM_P1;HPM_P2
2023/03/07 00:01:29;;;;;;;13.67;10.90;;;;;;;;;;5068125;28;20532;-77
2023/03/07 00:03:57;;;;;;;13.63;11.40;;;;;;;;;;5067679;28;20978;-76
2023/03/07 00:06:24;;;;;;;15.03;12.00;;;;;;;;;;5070123;28;20467;-75
2023/03/07 00:08:53;;;;;;;13.60;11.07;;;;;;;;;;5068986;28;20609;-76
2023/03/07 00:11:20;;;;;;;16.20;12.77;;;;;;;;;;5067758;28;20441;-76
2023/03/07 00:13:47;;;;;;;18.60;12.53;;;;;;;;;;5067381;28;20472;-75
2023/03/07 00:16:15;;;;;;;19.50;12.10;;;;;;;;;;5064083;28;20481;-76
2023/03/07 00:18:43;;;;;;;14.93;11.60;;;;;;;;;;5048290;28;20448;-76
2023/03/07 00:21:12;;;;;;;14.77;11.70;;;;;;;;;;5049212;28;20476;-75
2023/03/07 00:23:40;;;;;;;14.30;12.43;;;;;;;;;;5047764;28;20534;-75
2023/03/07 00:26:09;;;;;;;14.90;11.20;;;;;;;;;;5049751;28;21055;-76
2023/03/07 00:28:36;;;;;;;14.07;10.43;;;;;;;;;;5049685;28;20449;-78
2023/03/07 00:31:04;;;;;;;13.90;11.30;;;;;;;;;;5047980;28;20480;-75
2023/03/07 00:33:31;;;;;;;15.13;11.43;;;;;;;;;;5047175;28;20465;-77
2023/03/07 00:35:59;;;;;;;15.33;11.40;;;;;;;;;;5047093;28;20858;-76
2023/03/07 00:38:26;;;;;;;13.53;11.20;;;;;;;;;;5060568;28;21046;-74
2023/03/07 00:40:58;;;;;;;16.87;10.87;;;;;;;;;;5066308;28;20447;-75
2023/03/07 00:43:26;;;;;;;14.40;11.97;;;;;;;;;;5065987;28;20587;-76
2023/03/07 00:45:54;;;;;;;13.57;11.63;;;;;;;;;;5066370;28;20452;-76
2023/03/07 00:48:21;;;;;;;13.90;10.90;;;;;;;;;;5066360;28;20940;-75
2023/03/07 00:50:48;;;;;;;16.60;11.50;;;;;;;;;;5066630;28;20450;-75
2023/03/07 00:53:15;;;;;;;13.93;11.13;;;;;;;;;;5065862;28;20481;-76
2023/03/07 00:55:43;;;;;;;13.23;10.47;;;;;;;;;;5066346;28;20456;-75
2023/03/07 00:58:10;;;;;;;13.33;10.30;;;;;;;;;;5066388;28;20437;-74
2023/03/07 01:00:38;;;;;;;14.73;10.53;;;;;;;;;;5066228;28;20449;-76
2023/03/07 01:03:05;;;;;;;14.70;10.53;;;;;;;;;;5066006;28;20471;-75
2023/03/07 01:05:32;;;;;;;16.50;11.83;;;;;;;;;;5066091;28;20456;-78
2023/03/07 01:07:59;;;;;;;13.80;11.30;;;;;;;;;;5066385;28;20814;-76
2023/03/07 01:10:28;;;;;;;13.80;11.20;;;;;;;;;;5067224;28;20471;-77
2023/03/07 01:12:55;;;;;;;15.97;10.70;;;;;;;;;;5066652;28;20472;-77
2023/03/07 01:15:23;;;;;;;11.93;10.23;;;;;;;;;;5066793;28;20456;-76
2023/03/07 01:17:51;;;;;;;13.00;11.27;;;;;;;;;;5050360;28;20489;-76
2023/03/07 01:20:19;;;;;;;19.40;12.23;;;;;;;;;;5046841;28;20469;-77
2023/03/07 01:22:46;;;;;;;13.70;10.27;;;;;;;;;;5046307;28;20985;-78
2023/03/07 01:25:13;;;;;;;13.23;10.50;;;;;;;;;;5050304;28;20441;-76
2023/03/07 01:27:40;;;;;;;14.10;10.00;;;;;;;;;;5050648;28;20434;-78
2023/03/07 01:30:08;;;;;;;11.47;10.30;;;;;;;;;;5050728;28;20499;-77
2023/03/07 01:32:35;;;;;;;11.07;9.07;;;;;;;;;;5050107;28;20484;-76
2023/03/07 01:35:04;;;;;;;12.80;10.73;;;;;;;;;;5050584;28;20483;-77
2023/03/07 01:37:31;;;;;;;12.07;10.77;;;;;;;;;;5050110;28;21000;-78
2023/03/07 01:39:58;;;;;;;12.80;10.20;;;;;;;;;;5050338;28;20980;-77
2023/03/07 01:42:25;;;;;;;13.77;10.23;;;;;;;;;;5050325;28;20444;-76
2023/03/07 01:44:59;;;;;;;12.00;9.70;;;;;;;;;;5050283;28;20442;-76
2023/03/07 01:47:26;;;;;;;12.13;9.77;;;;;;;;;;5050717;28;20426;-77
2023/03/07 01:49:53;;;;;;;11.70;9.57;;;;;;;;;;5050313;28;20965;-77
2023/03/07 01:52:24;;;;;;;15.50;10.90;;;;;;;;;;5050427;28;20449;-77
2023/03/07 01:54:53;;;;;;;12.87;9.63;;;;;;;;;;5049836;28;20498;-77
2023/03/07 01:57:21;;;;;;;13.50;10.70;;;;;;;;;;5050248;28;20482;-78
2023/03/07 01:59:51;;;;;;;13.00;9.13;;;;;;;;;;5050109;28;20510;-77
2023/03/07 02:02:21;;;;;;;12.20;10.23;;;;;;;;;;5050174;28;20461;-76
2023/03/07 02:04:50;;;;;;;11.13;8.90;;;;;;;;;;5049463;28;20465;-77
2023/03/07 02:07:17;;;;;;;11.23;9.37;;;;;;;;;;5050109;28;20438;-77
2023/03/07 02:09:47;;;;;;;14.30;10.07;;;;;;;;;;5065578;28;21070;-77
2023/03/07 02:12:14;;;;;;;15.37;9.90;;;;;;;;;;5069963;28;20451;-76
2023/03/07 02:14:43;;;;;;;12.40;9.70;;;;;;;;;;5069666;28;20448;-77
2023/03/07 02:17:10;;;;;;;11.20;9.80;;;;;;;;;;5069765;28;20484;-77
2023/03/07 02:19:45;;;;;;;12.80;9.90;;;;;;;;;;5070121;28;20452;-77
2023/03/07 02:22:14;;;;;;;13.47;9.57;;;;;;;;;;5069849;28;20444;-77
2023/03/07 02:24:44;;;;;;;11.07;8.77;;;;;;;;;;5069515;28;20453;-77
2023/03/07 02:27:12;;;;;;;14.20;10.80;;;;;;;;;;5069678;28;20468;-76
2023/03/07 02:29:39;;;;;;;11.73;9.33;;;;;;;;;;5069556;28;20448;-76
2023/03/07 02:32:07;;;;;;;10.90;8.80;;;;;;;;;;5069330;28;20539;-77
2023/03/07 02:34:34;;;;;;;13.73;9.97;;;;;;;;;;5068710;28;21141;-77
2023/03/07 02:37:03;;;;;;;12.30;9.50;;;;;;;;;;5069021;28;20476;-77
2023/03/07 02:39:30;;;;;;;11.93;9.53;;;;;;;;;;5069327;28;20488;-77
2023/03/07 02:41:59;;;;;;;12.40;9.90;;;;;;;;;;5069263;28;20440;-78
2023/03/07 02:44:27;;;;;;;12.23;10.10;;;;;;;;;;5069019;28;20547;-77
2023/03/07 02:46:54;;;;;;;11.40;9.53;;;;;;;;;;5069393;28;20433;-77
2023/03/07 02:49:21;;;;;;;12.77;10.80;;;;;;;;;;5069352;28;20460;-79
2023/03/07 02:51:48;;;;;;;12.47;10.30;;;;;;;;;;5069101;28;20452;-77
2023/03/07 02:54:15;;;;;;;13.20;9.17;;;;;;;;;;5068647;28;20810;-77
2023/03/07 02:56:42;;;;;;;13.50;10.17;;;;;;;;;;5069346;28;20477;-78
2023/03/07 02:59:10;;;;;;;13.50;10.17;;;;;;;;;;5069864;28;20437;-76
2023/03/07 03:01:38;;;;;;;11.57;9.93;;;;;;;;;;5069311;28;20441;-76
2023/03/07 03:04:05;;;;;;;12.37;10.20;;;;;;;;;;5068466;28;20486;-77
2023/03/07 03:06:32;;;;;;;13.37;10.53;;;;;;;;;;5067588;28;20725;-76
2023/03/07 03:08:59;;;;;;;16.53;10.80;;;;;;;;;;5068727;28;20445;-77
2023/03/07 03:11:26;;;;;;;11.70;9.30;;;;;;;;;;5069181;28;20448;-76
2023/03/07 03:13:53;;;;;;;14.40;10.77;;;;;;;;;;5069283;28;20463;-77
2023/03/07 03:16:20;;;;;;;12.50;9.77;;;;;;;;;;5068760;28;20463;-77
2023/03/07 03:18:49;;;;;;;11.13;9.47;;;;;;;;;;5072237;28;20444;-76
2023/03/07 03:21:16;;;;;;;12.40;10.50;;;;;;;;;;5071576;28;20453;-77
2023/03/07 03:23:43;;;;;;;12.97;10.70;;;;;;;;;;5069067;28;20464;-76
2023/03/07 03:26:10;;;;;;;10.83;9.73;;;;;;;;;;5069084;28;20444;-76
2023/03/07 03:28:38;;;;;;;11.80;10.10;;;;;;;;;;5069394;28;20473;-75
2023/03/07 03:31:06;;;;;;;13.20;10.33;;;;;;;;;;5069122;28;20451;-76
2023/03/07 03:33:33;;;;;;;16.00;10.90;;;;;;;;;;5093394;28;20448;-76
2023/03/07 03:36:06;;;;;;;14.17;10.40;;;;;;;;;;5097954;28;20433;-76
2023/03/07 03:38:33;;;;;;;12.80;11.43;;;;;;;;;;5098036;28;20457;-75
2023/03/07 03:41:03;;;;;;;12.20;10.90;;;;;;;;;;5098173;28;20460;-77
2023/03/07 03:43:30;;;;;;;14.10;10.20;;;;;;;;;;5097451;28;20449;-77
2023/03/07 03:45:58;;;;;;;12.20;10.90;;;;;;;;;;5090524;28;20959;-77
2023/03/07 03:48:25;;;;;;;11.57;10.13;;;;;;;;;;5073497;28;20441;-75
2023/03/07 03:51:00;;;;;;;13.30;11.03;;;;;;;;;;5075566;28;20471;-76
2023/03/07 03:53:28;;;;;;;12.90;10.97;;;;;;;;;;5072689;28;20517;-77
2023/03/07 03:56:03;;;;;;;16.00;10.70;;;;;;;;;;5072495;28;20448;-77
2023/03/07 03:58:30;;;;;;;12.57;9.60;;;;;;;;;;5071397;28;20487;-78
2023/03/07 04:00:57;;;;;;;13.50;10.47;;;;;;;;;;5071156;28;20448;-77
2023/03/07 04:03:24;;;;;;;13.83;10.63;;;;;;;;;;5070375;28;20555;-78
2023/03/07 04:05:51;;;;;;;13.20;10.47;;;;;;;;;;5069788;28;20452;-75
2023/03/07 04:08:18;;;;;;;15.63;11.43;;;;;;;;;;5069853;28;20447;-76
2023/03/07 04:10:46;;;;;;;18.40;12.23;;;;;;;;;;5070205;28;20441;-76
2023/03/07 04:13:14;;;;;;;15.83;10.97;;;;;;;;;;5069753;28;20476;-76
2023/03/07 04:15:41;;;;;;;13.10;11.20;;;;;;;;;;5070216;28;20440;-76
2023/03/07 04:18:08;;;;;;;13.80;10.77;;;;;;;;;;5070067;28;20476;-77
2023/03/07 04:20:35;;;;;;;13.53;10.30;;;;;;;;;;5070355;28;20768;-76
2023/03/07 04:23:02;;;;;;;13.20;11.13;;;;;;;;;;5069588;28;20956;-76
2023/03/07 04:25:29;;;;;;;14.70;11.07;;;;;;;;;;5070220;28;20444;-76
2023/03/07 04:27:57;;;;;;;15.30;12.10;;;;;;;;;;5070077;28;20452;-77
2023/03/07 04:30:25;;;;;;;13.47;11.10;;;;;;;;;;5069884;28;20549;-77
2023/03/07 04:32:52;;;;;;;15.17;11.20;;;;;;;;;;5069725;28;20561;-76
2023/03/07 04:35:19;;;;;;;15.00;12.17;;;;;;;;;;5069651;28;20928;-76
2023/03/07 04:37:46;;;;;;;13.47;11.60;;;;;;;;;;5069716;28;20530;-78
2023/03/07 04:40:13;;;;;;;13.90;10.07;;;;;;;;;;5069721;28;20445;-76
2023/03/07 04:42:40;;;;;;;15.20;12.07;;;;;;;;;;5069363;28;20492;-77
2023/03/07 04:45:09;;;;;;;13.30;10.50;;;;;;;;;;5069543;28;20958;-77
2023/03/07 04:47:37;;;;;;;14.17;11.10;;;;;;;;;;5069772;28;20448;-77
2023/03/07 04:50:04;;;;;;;13.90;10.67;;;;;;;;;;5069697;28;20463;-77
2023/03/07 04:52:31;;;;;;;15.20;10.77;;;;;;;;;;5069962;28;20452;-77
2023/03/07 04:54:58;;;;;;;15.83;12.43;;;;;;;;;;5070107;28;20448;-76
2023/03/07 04:57:25;;;;;;;16.13;11.00;;;;;;;;;;5069629;28;20473;-77
2023/03/07 04:59:52;;;;;;;15.17;10.60;;;;;;;;;;5073224;28;20456;-76
2023/03/07 05:02:21;;;;;;;17.53;11.80;;;;;;;;;;5073474;28;20440;-76
2023/03/07 05:04:48;;;;;;;18.50;11.67;;;;;;;;;;5073572;28;20460;-78
2023/03/07 05:07:15;;;;;;;14.30;11.33;;;;;;;;;;5073525;28;20449;-77
2023/03/07 05:09:42;;;;;;;14.43;11.70;;;;;;;;;;5073691;28;20448;-76
2023/03/07 05:12:10;;;;;;;13.37;11.13;;;;;;;;;;5077293;28;20456;-76
2023/03/07 05:14:37;;;;;;;14.27;11.40;;;;;;;;;;5081510;28;20460;-77
2023/03/07 05:17:04;;;;;;;13.00;11.57;;;;;;;;;;5068666;28;20438;-77
2023/03/07 05:19:32;;;;;;;14.73;11.37;;;;;;;;;;5060205;28;20433;-77
2023/03/07 05:21:59;;;;;;;16.30;11.73;;;;;;;;;;5068991;28;20428;-77
2023/03/07 05:24:26;;;;;;;16.43;12.20;;;;;;;;;;5072731;28;20461;-76
2023/03/07 05:26:53;;;;;;;15.47;10.90;;;;;;;;;;5073727;28;20449;-75
2023/03/07 05:29:20;;;;;;;14.90;10.87;;;;;;;;;;5073574;28;20436;-77
2023/03/07 05:31:47;;;;;;;12.23;10.20;;;;;;;;;;5073259;28;20983;-77
2023/03/07 05:34:15;;;;;;;17.03;12.10;;;;;;;;;;5072947;28;20460;-76
2023/03/07 05:36:43;;;;;;;13.10;11.10;;;;;;;;;;5074039;28;20439;-77
2023/03/07 05:39:10;;;;;;;14.33;11.30;;;;;;;;;;5078457;28;20483;-77
2023/03/07 05:41:37;;;;;;;14.87;11.37;;;;;;;;;;5078926;28;20440;-77
2023/03/07 05:44:05;;;;;;;15.60;12.07;;;;;;;;;;5076879;28;20538;-76
2023/03/07 05:46:32;;;;;;;13.03;10.33;;;;;;;;;;5075167;28;20506;-77
2023/03/07 05:48:59;;;;;;;15.90;12.03;;;;;;;;;;5073370;28;20487;-76
2023/03/07 05:51:26;;;;;;;12.97;10.93;;;;;;;;;;5074060;28;20504;-77
2023/03/07 05:53:54;;;;;;;17.50;11.63;;;;;;;;;;5072593;28;20578;-78
2023/03/07 05:56:21;;;;;;;15.83;12.37;;;;;;;;;;5072338;28;20441;-76
2023/03/07 05:58:48;;;;;;;15.33;10.80;;;;;;;;;;5072678;28;20566;-76
2023/03/07 06:01:16;;;;;;;16.00;11.80;;;;;;;;;;5072890;28;20472;-76
2023/03/07 06:03:43;;;;;;;13.83;10.20;;;;;;;;;;5073787;28;20449;-77
2023/03/07 06:06:11;;;;;;;15.23;10.57;;;;;;;;;;5073990;28;20515;-76
2023/03/07 06:08:38;;;;;;;18.13;11.63;;;;;;;;;;5073539;28;20452;-77
2023/03/07 06:11:07;;;;;;;16.60;12.17;;;;;;;;;;5073820;28;20524;-78
2023/03/07 06:13:34;;;;;;;15.67;11.00;;;;;;;;;;5073896;28;20465;-77
2023/03/07 06:16:01;;;;;;;17.80;12.17;;;;;;;;;;5072592;28;21097;-77
2023/03/07 06:18:28;;;;;;;13.57;10.37;;;;;;;;;;5072396;28;20904;-77
2023/03/07 06:20:57;;;;;;;14.37;10.97;;;;;;;;;;5072200;28;20966;-78
2023/03/07 06:23:24;;;;;;;14.40;11.00;;;;;;;;;;5071905;28;20461;-77
2023/03/07 06:25:51;;;;;;;14.53;10.73;;;;;;;;;;5071948;28;20445;-77
2023/03/07 06:28:20;;;;;;;13.47;10.47;;;;;;;;;;5072414;28;20441;-77
2023/03/07 06:30:47;;;;;;;13.00;10.33;;;;;;;;;;5072355;28;20944;-76
2023/03/07 06:33:14;;;;;;;15.33;10.50;;;;;;;;;;5072261;28;20460;-77
2023/03/07 06:35:42;;;;;;;12.63;10.27;;;;;;;;;;5073265;28;20447;-77
2023/03/07 06:38:09;;;;;;;13.77;9.80;;;;;;;;;;5084754;28;20575;-76
2023/03/07 06:40:36;;;;;;;13.17;9.90;;;;;;;;;;5081242;28;20444;-76
2023/03/07 06:43:03;;;;;;;11.43;9.60;;;;;;;;;;5081036;28;20472;-76
2023/03/07 06:45:32;;;;;;;11.73;9.37;;;;;;;;;;5078524;28;20429;-77
2023/03/07 06:47:59;;;;;;;12.83;10.90;;;;;;;;;;5083324;28;20441;-76
2023/03/07 06:50:26;;;;;;;12.17;9.80;;;;;;;;;;5081948;28;20456;-78
2023/03/07 06:52:53;;;;;;;13.97;10.70;;;;;;;;;;5075524;28;20979;-77
2023/03/07 06:55:20;;;;;;;12.73;9.77;;;;;;;;;;5073243;28;20453;-77
2023/03/07 06:57:47;;;;;;;12.37;10.60;;;;;;;;;;5072273;28;20587;-77
2023/03/07 07:00:15;;;;;;;13.50;10.30;;;;;;;;;;5071922;28;20451;-77
2023/03/07 07:02:43;;;;;;;11.20;8.73;;;;;;;;;;5071721;28;20472;-78
2023/03/07 07:05:13;;;;;;;11.53;9.13;;;;;;;;;;5071658;28;20457;-78
2023/03/07 07:07:40;;;;;;;13.57;9.90;;;;;;;;;;5071673;28;20553;-78
2023/03/07 07:10:08;;;;;;;10.20;9.10;;;;;;;;;;5071116;28;20509;-76
2023/03/07 07:12:35;;;;;;;13.60;10.37;;;;;;;;;;5071528;28;20449;-77
2023/03/07 07:15:04;;;;;;;12.50;10.10;;;;;;;;;;5071692;28;20448;-77
2023/03/07 07:17:31;;;;;;;12.57;10.70;;;;;;;;;;5056608;28;20918;-76
2023/03/07 07:19:59;;;;;;;12.73;9.50;;;;;;;;;;5050925;28;20445;-77
2023/03/07 07:22:26;;;;;;;11.83;10.30;;;;;;;;;;5050467;28;20434;-77
2023/03/07 07:24:53;;;;;;;13.67;10.43;;;;;;;;;;5050903;28;20445;-76
2023/03/07 07:27:20;;;;;;;14.17;10.17;;;;;;;;;;5050865;28;20457;-75
2023/03/07 07:29:47;;;;;;;13.40;9.47;;;;;;;;;;5050388;28;20808;-77
2023/03/07 07:32:14;;;;;;;10.90;9.13;;;;;;;;;;5050705;28;20457;-77
2023/03/07 07:34:42;;;;;;;14.20;10.90;;;;;;;;;;5063284;28;20448;-76
2023/03/07 07:37:10;;;;;;;12.83;10.20;;;;;;;;;;5070562;28;20514;-77
2023/03/07 07:39:39;;;;;;;11.97;10.20;;;;;;;;;;5077860;28;20890;-77
2023/03/07 07:42:06;;;;;;;12.23;9.63;;;;;;;;;;5093532;28;20447;-78
2023/03/07 07:44:33;;;;;;;11.10;9.80;;;;;;;;;;5092545;28;20444;-77
2023/03/07 07:47:01;;;;;;;13.27;10.17;;;;;;;;;;5091208;28;20810;-77
2023/03/07 07:49:28;;;;;;;12.87;9.30;;;;;;;;;;5090497;28;20940;-77
2023/03/07 07:51:55;;;;;;;12.30;9.90;;;;;;;;;;5090724;28;20485;-77
2023/03/07 07:54:25;;;;;;;15.70;10.40;;;;;;;;;;5090782;28;20861;-77
2023/03/07 07:56:52;;;;;;;11.27;9.60;;;;;;;;;;5085882;28;20432;-77
2023/03/07 07:59:19;;;;;;;11.43;9.83;;;;;;;;;;5070090;28;20473;-77
2023/03/07 08:01:46;;;;;;;12.87;9.77;;;;;;;;;;5070681;28;20444;-77
2023/03/07 08:04:13;;;;;;;13.30;9.77;;;;;;;;;;5070237;28;20463;-77
2023/03/07 08:06:40;;;;;;;13.70;9.93;;;;;;;;;;5070462;28;20421;-76
2023/03/07 08:09:07;;;;;;;12.50;9.40;;;;;;;;;;5070278;28;20437;-77
2023/03/07 08:11:36;;;;;;;10.13;8.80;;;;;;;;;;5070083;28;20455;-77
2023/03/07 08:14:03;;;;;;;11.00;9.87;;;;;;;;;;5070412;28;20460;-79
2023/03/07 08:16:30;;;;;;;11.07;8.90;;;;;;;;;;5070438;28;20472;-76
2023/03/07 08:18:59;;;;;;;10.37;9.27;;;;;;;;;;5069715;28;21003;-77
2023/03/07 08:21:26;;;;;;;11.83;9.90;;;;;;;;;;5070431;28;20445;-76
2023/03/07 08:23:53;;;;;;;14.40;10.20;;;;;;;;;;5069752;28;20466;-78
2023/03/07 08:26:20;;;;;;;12.13;9.90;;;;;;;;;;5070309;28;20444;-77
2023/03/07 08:28:49;;;;;;;12.03;10.03;;;;;;;;;;5069822;28;20452;-76
2023/03/07 08:31:17;;;;;;;13.80;10.03;;;;;;;;;;5070342;28;20445;-76
2023/03/07 08:33:44;;;;;;;11.77;9.60;;;;;;;;;;5069130;28;20954;-77
2023/03/07 08:36:11;;;;;;;12.10;9.50;;;;;;;;;;5069820;28;20445;-75
2023/03/07 08:38:38;;;;;;;20.70;10.63;;;;;;;;;;5069975;28;20479;-75
2023/03/07 08:41:07;;;;;;;12.07;10.27;;;;;;;;;;5071494;28;20453;-77
2023/03/07 08:43:35;;;;;;;14.47;10.60;;;;;;;;;;5070126;28;20479;-77
2023/03/07 08:46:04;;;;;;;10.77;9.63;;;;;;;;;;5069660;28;20855;-77
2023/03/07 08:48:31;;;;;;;12.60;9.47;;;;;;;;;;5069692;28;20444;-77
2023/03/07 08:50:58;;;;;;;11.53;9.67;;;;;;;;;;5070046;28;20444;-78
2023/03/07 08:53:25;;;;;;;10.17;9.17;;;;;;;;;;5069924;28;20461;-76
2023/03/07 08:55:52;;;;;;;11.00;9.90;;;;;;;;;;5071904;28;20479;-77
2023/03/07 08:58:19;;;;;;;10.87;9.47;;;;;;;;;;5071173;28;20445;-75
2023/03/07 09:00:46;;;;;;;11.10;8.90;;;;;;;;;;5070784;28;20452;-77
2023/03/07 09:03:14;;;;;;;9.60;8.60;;;;;;;;;;5071438;28;20824;-76
2023/03/07 09:05:41;;;;;;;11.20;9.33;;;;;;;;;;5071779;28;20463;-78
2023/03/07 09:08:08;;;;;;;10.03;8.60;;;;;;;;;;5069946;28;20523;-76
2023/03/07 09:10:36;;;;;;;10.30;8.30;;;;;;;;;;5069285;28;20952;-77
2023/03/07 09:13:03;;;;;;;11.63;8.63;;;;;;;;;;5069298;28;20471;-77
2023/03/07 09:15:30;;;;;;;10.70;9.20;;;;;;;;;;5069802;28;20451;-77
2023/03/07 09:17:57;;;;;;;11.43;9.20;;;;;;;;;;5051881;28;20446;-77
2023/03/07 09:20:26;;;;;;;12.90;8.17;;;;;;;;;;5050007;28;20477;-77
2023/03/07 09:22:53;;;;;;;10.37;8.60;;;;;;;;;;5050234;28;20473;-76
2023/03/07 09:25:20;;;;;;;10.00;7.80;;;;;;;;;;5050171;28;20524;-77
2023/03/07 09:27:48;;;;;;;9.00;7.40;;;;;;;;;;5049371;28;20465;-77
2023/03/07 09:30:15;;;;;;;8.83;7.90;;;;;;;;;;5049378;28;20437;-76
2023/03/07 09:32:42;;;;;;;8.73;7.17;;;;;;;;;;5049122;28;20556;-77
2023/03/07 09:35:09;;;;;;;13.20;8.30;;;;;;;;;;5049414;28;20437;-77
2023/03/07 09:37:38;;;;;;;8.33;6.93;;;;;;;;;;5049399;28;20452;-78
2023/03/07 09:40:07;;;;;;;8.43;7.53;;;;;;;;;;5049133;28;20477;-76
2023/03/07 09:42:39;;;;;;;7.83;7.10;;;;;;;;;;5049307;28;20453;-76
2023/03/07 09:45:19;;;;;;;9.83;7.77;;;;;;;;;;5049413;28;20876;-79
2023/03/07 09:47:56;;;;;;;10.27;7.20;;;;;;;;;;5052691;28;20464;-77
2023/03/07 09:50:29;;;;;;;9.00;7.57;;;;;;;;;;5052717;28;20452;-77
2023/03/07 09:53:00;;;;;;;10.30;7.10;;;;;;;;;;5052378;28;20473;-77
2023/03/07 09:55:28;;;;;;;9.30;7.80;;;;;;;;;;5054376;28;20446;-79
2023/03/07 09:58:04;;;;;;;9.97;7.50;;;;;;;;;;5053490;28;20437;-77
2023/03/07 10:00:36;;;;;;;7.73;6.73;;;;;;;;;;5053342;28;20503;-78
2023/03/07 10:03:09;;;;;;;8.20;6.37;;;;;;;;;;5053015;28;20552;-77
2023/03/07 10:05:39;;;;;;;8.20;7.40;;;;;;;;;;5052627;28;20460;-77
2023/03/07 10:08:10;;;;;;;8.73;6.57;;;;;;;;;;5052062;28;20453;-76
2023/03/07 10:10:38;;;;;;;8.10;7.30;;;;;;;;;;5052169;28;20432;-78
2023/03/07 10:13:14;;;;;;;7.23;6.53;;;;;;;;;;5052064;28;20469;-78
2023/03/07 10:15:45;;;;;;;7.53;6.80;;;;;;;;;;5052546;28;20433;-77
2023/03/07 10:18:25;;;;;;;7.30;6.67;;;;;;;;;;5051830;28;20446;-77
2023/03/07 10:20:53;;;;;;;8.07;7.27;;;;;;;;;;5052765;28;20425;-77
2023/03/07 10:23:47;;;;;;;8.83;7.30;;;;;;;;;;5052370;28;20599;-78
2023/03/07 10:26:18;;;;;;;8.00;7.20;;;;;;;;;;5016284;28;20437;-77
2023/03/07 10:28:46;;;;;;;7.43;6.63;;;;;;;;;;5052283;28;20428;-76
2023/03/07 10:31:17;;;;;;;6.50;5.90;;;;;;;;;;5052922;28;20437;-77
2023/03/07 10:33:46;;;;;;;8.03;6.10;;;;;;;;;;5052066;28;20468;-77
2023/03/07 10:36:19;;;;;;;7.97;7.20;;;;;;;;;;5051869;28;20441;-76
2023/03/07 10:38:50;;;;;;;9.13;7.53;;;;;;;;;;5051621;28;20921;-78
2023/03/07 10:41:21;;;;;;;12.50;10.37;;;;;;;;;;5052428;28;21141;-76
2023/03/07 10:43:49;;;;;;;7.70;7.00;;;;;;;;;;5051284;28;20469;-78
2023/03/07 10:46:17;;;;;;;9.60;7.73;;;;;;;;;;5051744;28;20469;-78
2023/03/07 10:48:46;;;;;;;7.47;6.73;;;;;;;;;;5051812;28;20449;-77
2023/03/07 10:51:20;;;;;;;8.97;7.23;;;;;;;;;;5051345;28;20802;-78
2023/03/07 10:53:48;;;;;;;8.93;7.63;;;;;;;;;;5051960;28;20481;-77
2023/03/07 10:56:15;;;;;;;7.83;7.13;;;;;;;;;;5051311;28;20507;-78
2023/03/07 11:01:37;;;;;;;7.63;6.83;;;;;;;;;;5150152;27;20586;-78
2023/03/07 11:04:04;;;;;;;10.60;6.87;;;;;;;;;;5148797;27;20492;-76
2023/03/07 11:06:33;;;;;;;8.67;6.90;;;;;;;;;;5148827;27;20436;-77
2023/03/07 11:09:08;;;;;;;11.20;8.00;;;;;;;;;;5149260;27;20433;-76
2023/03/07 11:11:36;;;;;;;8.13;7.13;;;;;;;;;;5149046;27;20850;-76
2023/03/07 11:14:08;;;;;;;9.33;7.10;;;;;;;;;;5149049;27;20488;-78
2023/03/07 11:16:41;;;;;;;8.60;7.03;;;;;;;;;;5148957;27;20497;-77
2023/03/07 11:19:27;;;;;;;8.73;7.67;;;;;;;;;;5148699;27;20425;-78
2023/03/07 11:21:55;;;;;;;7.33;6.63;;;;;;;;;;5148975;27;20472;-77
2023/03/07 11:24:25;;;;;;;7.10;6.40;;;;;;;;;;5148941;27;20468;-77
2023/03/07 11:26:54;;;;;;;10.07;8.33;;;;;;;;;;5149428;27;20442;-77
2023/03/07 11:29:21;;;;;;;8.03;6.70;;;;;;;;;;5149371;27;20449;-76
2023/03/07 11:31:52;;;;;;;10.23;8.40;;;;;;;;;;5149768;27;20453;-76
2023/03/07 11:34:26;;;;;;;8.97;7.70;;;;;;;;;;5149584;27;20522;-76
2023/03/07 11:36:56;;;;;;;11.90;7.73;;;;;;;;;;5151794;27;20424;-77
2023/03/07 11:39:28;;;;;;;8.70;7.10;;;;;;;;;;5148866;27;20490;-77
2023/03/07 11:41:56;;;;;;;9.23;7.37;;;;;;;;;;5132012;27;20473;-76
2023/03/07 11:44:31;;;;;;;8.57;7.20;;;;;;;;;;5148402;27;20457;-76
2023/03/07 11:47:14;;;;;;;8.03;7.23;;;;;;;;;;5155132;27;20457;-78
2023/03/07 11:49:46;;;;;;;8.67;7.63;;;;;;;;;;5150433;27;20445;-77
2023/03/07 11:52:28;;;;;;;10.10;7.63;;;;;;;;;;5150680;27;20856;-78
2023/03/07 11:54:59;;;;;;;9.50;7.53;;;;;;;;;;5150228;27;20437;-79
2023/03/07 11:57:34;;;;;;;8.37;7.57;;;;;;;;;;5149744;27;20440;-77
2023/03/07 12:00:15;;;;;;;7.30;6.37;;;;;;;;;;5148317;27;20476;-76
2023/03/07 12:02:49;;;;;;;7.97;6.93;;;;;;;;;;5148329;27;20500;-76
2023/03/07 12:05:23;;;;;;;7.97;7.17;;;;;;;;;;5148604;27;20864;-77
2023/03/07 12:08:07;;;;;;;8.87;6.97;;;;;;;;;;5148359;27;20437;-78
2023/03/07 12:10:43;;;;;;;7.97;6.73;;;;;;;;;;5148205;27;20436;-77
2023/03/07 12:13:15;;;;;;;10.90;6.80;;;;;;;;;;5133467;27;20457;-77
2023/03/07 12:15:46;;;;;;;7.40;6.40;;;;;;;;;;5134008;27;20430;-77
2023/03/07 12:18:24;;;;;;;8.77;7.87;;;;;;;;;;5147884;27;20450;-78
2023/03/07 12:20:57;;;;;;;8.00;7.30;;;;;;;;;;5132867;27;20468;-75
2023/03/07 12:23:26;;;;;;;7.50;6.63;;;;;;;;;;5133118;27;20473;-76
2023/03/07 12:25:55;;;;;;;9.83;7.47;;;;;;;;;;5132811;27;20985;-76
2023/03/07 12:28:25;;;;;;;9.10;7.90;;;;;;;;;;5133040;27;20446;-77
2023/03/07 12:30:57;;;;;;;11.63;8.43;;;;;;;;;;5132794;27;20925;-76
2023/03/07 12:33:28;;;;;;;8.83;7.37;;;;;;;;;;5132920;27;20481;-76
2023/03/07 12:35:58;;;;;;;7.13;6.43;;;;;;;;;;5133175;27;20457;-76
2023/03/07 12:38:31;;;;;;;7.50;6.63;;;;;;;;;;5133016;27;20945;-77
2023/03/07 12:41:01;;;;;;;9.13;7.17;;;;;;;;;;5129363;27;21165;-77
2023/03/07 12:43:30;;;;;;;8.20;7.40;;;;;;;;;;5132610;27;20461;-75
2023/03/07 12:46:00;;;;;;;8.80;6.87;;;;;;;;;;5133092;27;20532;-76
2023/03/07 12:48:41;;;;;;;7.50;6.70;;;;;;;;;;5132985;27;20449;-77
2023/03/07 12:51:11;;;;;;;8.20;7.40;;;;;;;;;;5124083;27;20930;-77
2023/03/07 12:53:42;;;;;;;8.60;7.70;;;;;;;;;;5114740;27;20863;-78
2023/03/07 12:56:14;;;;;;;8.37;7.57;;;;;;;;;;5111772;28;20443;-77
2023/03/07 12:58:43;;;;;;;9.47;6.73;;;;;;;;;;5112342;28;20431;-77
2023/03/07 13:01:13;;;;;;;7.20;6.23;;;;;;;;;;5111730;28;21114;-76
2023/03/07 13:03:43;;;;;;;9.00;7.80;;;;;;;;;;5111760;28;20494;-76
2023/03/07 13:06:16;;;;;;;6.80;6.13;;;;;;;;;;5112384;28;20450;-77
2023/03/07 13:08:45;;;;;;;9.90;6.90;;;;;;;;;;5112231;28;20473;-76
2023/03/07 13:11:17;;;;;;;8.40;6.40;;;;;;;;;;5112163;28;20450;-77
2023/03/07 13:13:51;;;;;;;7.47;6.37;;;;;;;;;;5111627;28;20862;-76
2023/03/07 13:16:35;;;;;;;7.13;6.17;;;;;;;;;;5115354;27;20440;-76
2023/03/07 13:19:21;;;;;;;8.13;7.20;;;;;;;;;;5132657;27;20423;-76
2023/03/07 13:21:49;;;;;;;7.47;6.37;;;;;;;;;;5132387;27;20480;-75
2023/03/07 13:24:36;;;;;;;6.63;5.93;;;;;;;;;;5131294;27;20466;-77
2023/03/07 13:27:03;;;;;;;7.67;6.20;;;;;;;;;;5132575;27;20442;-77
2023/03/07 13:29:49;;;;;;;6.50;5.93;;;;;;;;;;5133211;27;20494;-76
2023/03/07 13:32:31;;;;;;;10.10;6.60;;;;;;;;;;5144205;27;20429;-77
2023/03/07 13:34:58;;;;;;;7.90;7.10;;;;;;;;;;5149243;27;20487;-78
2023/03/07 13:37:49;;;;;;;7.30;5.83;;;;;;;;;;5150549;27;20441;-76
2023/03/07 13:40:36;;;;;;;6.97;6.27;;;;;;;;;;5144850;27;20542;-77
2023/03/07 13:43:05;;;;;;;10.00;6.77;;;;;;;;;;5137418;27;20864;-78
2023/03/07 13:45:49;;;;;;;6.67;6.00;;;;;;;;;;5131357;27;20502;-77
2023/03/07 13:48:31;;;;;;;6.10;5.50;;;;;;;;;;5131938;27;20650;-77
2023/03/07 13:51:07;;;;;;;6.13;5.27;;;;;;;;;;5131201;27;20434;-78
2023/03/07 13:53:35;;;;;;;9.00;6.77;;;;;;;;;;5131017;27;20469;-77
2023/03/07 13:56:04;;;;;;;6.63;5.90;;;;;;;;;;5131029;27;20437;-77
2023/03/07 13:58:34;;;;;;;6.43;5.80;;;;;;;;;;5125478;27;20458;-77
2023/03/07 14:01:02;;;;;;;7.73;5.93;;;;;;;;;;5130807;27;20481;-78
2023/03/07 14:03:31;;;;;;;8.50;6.23;;;;;;;;;;5130639;27;20977;-78
2023/03/07 14:06:00;;;;;;;6.40;5.80;;;;;;;;;;5131018;27;20469;-76
2023/03/07 14:08:29;;;;;;;6.33;5.83;;;;;;;;;;5131006;27;20446;-76
2023/03/07 14:10:57;;;;;;;5.20;4.70;;;;;;;;;;5131164;27;20430;-76
2023/03/07 14:13:34;;;;;;;6.13;5.33;;;;;;;;;;5131848;27;20472;-76
2023/03/07 14:16:06;;;;;;;6.13;5.53;;;;;;;;;;5131796;27;20433;-78
2023/03/07 14:18:43;;;;;;;7.80;5.73;;;;;;;;;;5131599;27;20426;-78
2023/03/07 14:21:14;;;;;;;6.00;5.40;;;;;;;;;;5131173;27;20466;-78
2023/03/07 14:23:50;;;;;;;6.30;5.70;;;;;;;;;;5131499;27;20465;-77
2023/03/07 14:26:20;;;;;;;6.00;5.50;;;;;;;;;;5134029;27;20483;-77
2023/03/07 14:28:51;;;;;;;5.30;4.80;;;;;;;;;;5132323;27;20489;-77
2023/03/07 14:31:23;;;;;;;5.43;4.93;;;;;;;;;;5131088;27;20438;-78
2023/03/07 14:33:51;;;;;;;6.87;5.70;;;;;;;;;;5130681;27;20458;-77
2023/03/07 14:36:19;;;;;;;6.90;4.60;;;;;;;;;;5130984;27;20446;-79
2023/03/07 14:38:47;;;;;;;5.13;4.63;;;;;;;;;;5132244;27;20450;-79
2023/03/07 14:41:20;;;;;;;5.70;5.20;;;;;;;;;;5133972;27;20847;-76
2023/03/07 14:43:56;;;;;;;5.90;5.30;;;;;;;;;;5130593;27;20469;-76